sensor_id;sensor_type;location;lat;lon;timestamp;P1;durP1;ratioP1;P2;durP2;ratioP2
58756;SDS011;44527;47.460;19.016;2024-03-23T00:55:37;21.55;;;9.52;;
58756;SDS011;44527;47.460;19.016;2024-03-23T00:58:38;16.75;;;8.80;;
58756;SDS011;44527;47.460;19.016;2024-03-23T01:01:40;23.23;;;8.32;;
58756;SDS011;44527;47.460;19.016;2024-03-23T01:04:42;17.55;;;8.45;;
58756;SDS011;44527;47.460;19.016;2024-03-23T01:07:44;12.37;;;7.68;;
58756;SDS011;44527;47.460;19.016;2024-03-23T01:11:01;14.90;;;8.70;;
58756;SDS011;44527;47.460;19.016;2024-03-23T01:14:03;20.95;;;8.02;;
58756;SDS011;44527;47.460;19.016;2024-03-23T01:17:05;14.95;;;8.10;;
58756;SDS011;44527;47.460;19.016;2024-03-23T01:20:07;15.13;;;7.68;;
58756;SDS011;44527;47.460;19.016;2024-03-23T01:23:09;17.15;;;7.97;;
58756;SDS011;44527;47.460;19.016;2024-03-23T01:26:11;22.00;;;8.30;;
58756;SDS011;44527;47.460;19.016;2024-03-23T01:29:14;17.10;;;8.98;;
58756;SDS011;44527;47.460;19.016;2024-03-23T01:32:15;22.20;;;8.90;;
58756;SDS011;44527;47.460;19.016;2024-03-23T01:35:17;16.52;;;8.20;;
58756;SDS011;44527;47.460;19.016;2024-03-23T01:38:18;18.42;;;8.15;;
58756;SDS011;44527;47.460;19.016;2024-03-23T01:41:20;18.58;;;8.77;;
58756;SDS011;44527;47.460;19.016;2024-03-23T01:44:22;16.80;;;8.10;;
58756;SDS011;44527;47.460;19.016;2024-03-23T01:47:24;17.40;;;7.68;;
58756;SDS011;44527;47.460;19.016;2024-03-23T01:50:26;18.55;;;8.48;;
58756;SDS011;44527;47.460;19.016;2024-03-23T01:53:29;18.92;;;8.43;;
58756;SDS011;44527;47.460;19.016;2024-03-23T01:56:33;18.92;;;7.87;;
58756;SDS011;44527;47.460;19.016;2024-03-23T01:59:38;18.30;;;8.55;;
58756;SDS011;44527;47.460;19.016;2024-03-23T02:02:42;18.10;;;7.95;;
58756;SDS011;44527;47.460;19.016;2024-03-23T02:05:47;21.45;;;8.20;;
58756;SDS011;44527;47.460;19.016;2024-03-23T02:08:49;17.73;;;9.45;;
58756;SDS011;44527;47.460;19.016;2024-03-23T02:11:52;17.65;;;8.23;;
58756;SDS011;44527;47.460;19.016;2024-03-23T02:14:53;22.37;;;9.82;;
58756;SDS011;44527;47.460;19.016;2024-03-23T02:17:55;23.35;;;9.25;;
58756;SDS011;44527;47.460;19.016;2024-03-23T02:20:57;17.45;;;9.02;;
58756;SDS011;44527;47.460;19.016;2024-03-23T02:23:59;22.67;;;9.02;;
58756;SDS011;44527;47.460;19.016;2024-03-23T02:27:01;19.17;;;8.93;;
58756;SDS011;44527;47.460;19.016;2024-03-23T02:30:04;15.75;;;8.27;;
58756;SDS011;44527;47.460;19.016;2024-03-23T02:33:07;23.05;;;9.80;;
58756;SDS011;44527;47.460;19.016;2024-03-23T02:36:10;20.33;;;9.63;;
58756;SDS011;44527;47.460;19.016;2024-03-23T02:39:12;20.88;;;9.02;;
58756;SDS011;44527;47.460;19.016;2024-03-23T02:42:14;21.65;;;9.18;;
58756;SDS011;44527;47.460;19.016;2024-03-23T02:45:18;19.15;;;9.88;;
58756;SDS011;44527;47.460;19.016;2024-03-23T02:48:21;19.92;;;9.52;;
58756;SDS011;44527;47.460;19.016;2024-03-23T02:51:23;28.98;;;9.95;;
58756;SDS011;44527;47.460;19.016;2024-03-23T02:54:25;23.77;;;10.93;;
58756;SDS011;44527;47.460;19.016;2024-03-23T02:57:26;21.05;;;9.73;;
58756;SDS011;44527;47.460;19.016;2024-03-23T03:00:29;21.35;;;9.60;;
58756;SDS011;44527;47.460;19.016;2024-03-23T03:03:30;19.80;;;9.30;;
58756;SDS011;44527;47.460;19.016;2024-03-23T03:06:32;24.12;;;9.90;;
58756;SDS011;44527;47.460;19.016;2024-03-23T03:09:34;22.23;;;10.10;;
58756;SDS011;44527;47.460;19.016;2024-03-23T03:12:37;26.00;;;9.75;;
58756;SDS011;44527;47.460;19.016;2024-03-23T03:15:39;20.48;;;9.20;;
58756;SDS011;44527;47.460;19.016;2024-03-23T03:18:45;17.75;;;9.68;;
58756;SDS011;44527;47.460;19.016;2024-03-23T03:21:47;17.83;;;9.38;;
58756;SDS011;44527;47.460;19.016;2024-03-23T03:24:49;17.35;;;8.82;;
58756;SDS011;44527;47.460;19.016;2024-03-23T03:27:51;19.27;;;9.95;;
58756;SDS011;44527;47.460;19.016;2024-03-23T03:30:53;21.48;;;9.55;;
58756;SDS011;44527;47.460;19.016;2024-03-23T03:33:54;22.37;;;9.68;;
58756;SDS011;44527;47.460;19.016;2024-03-23T03:36:56;23.58;;;9.55;;
58756;SDS011;44527;47.460;19.016;2024-03-23T03:39:58;20.48;;;9.18;;
58756;SDS011;44527;47.460;19.016;2024-03-23T03:43:00;20.17;;;9.00;;
58756;SDS011;44527;47.460;19.016;2024-03-23T03:46:02;19.65;;;9.60;;
58756;SDS011;44527;47.460;19.016;2024-03-23T03:49:04;19.25;;;8.63;;
58756;SDS011;44527;47.460;19.016;2024-03-23T03:52:06;18.65;;;9.05;;
58756;SDS011;44527;47.460;19.016;2024-03-23T03:55:11;15.73;;;8.27;;
58756;SDS011;44527;47.460;19.016;2024-03-23T03:58:14;26.75;;;9.15;;
58756;SDS011;44527;47.460;19.016;2024-03-23T04:01:16;17.98;;;8.77;;
58756;SDS011;44527;47.460;19.016;2024-03-23T04:04:18;20.65;;;8.77;;
58756;SDS011;44527;47.460;19.016;2024-03-23T04:07:19;16.45;;;8.07;;
58756;SDS011;44527;47.460;19.016;2024-03-23T04:10:24;19.87;;;8.50;;
58756;SDS011;44527;47.460;19.016;2024-03-23T04:13:25;16.65;;;8.90;;
58756;SDS011;44527;47.460;19.016;2024-03-23T04:16:28;18.50;;;9.82;;
58756;SDS011;44527;47.460;19.016;2024-03-23T04:19:30;20.88;;;9.40;;
58756;SDS011;44527;47.460;19.016;2024-03-23T04:22:32;18.75;;;8.77;;
58756;SDS011;44527;47.460;19.016;2024-03-23T04:25:33;23.33;;;9.85;;
58756;SDS011;44527;47.460;19.016;2024-03-23T04:28:35;28.15;;;10.98;;
58756;SDS011;44527;47.460;19.016;2024-03-23T04:31:37;23.05;;;9.85;;
58756;SDS011;44527;47.460;19.016;2024-03-23T04:34:39;24.12;;;9.50;;
58756;SDS011;44527;47.460;19.016;2024-03-23T04:37:41;24.42;;;9.60;;
58756;SDS011;44527;47.460;19.016;2024-03-23T04:40:43;20.12;;;8.40;;
58756;SDS011;44527;47.460;19.016;2024-03-23T04:43:44;18.70;;;9.00;;
58756;SDS011;44527;47.460;19.016;2024-03-23T04:46:46;25.02;;;10.15;;
58756;SDS011;44527;47.460;19.016;2024-03-23T04:49:48;18.67;;;10.05;;
58756;SDS011;44527;47.460;19.016;2024-03-23T04:52:50;19.85;;;9.15;;
58756;SDS011;44527;47.460;19.016;2024-03-23T04:55:52;14.45;;;9.02;;
58756;SDS011;44527;47.460;19.016;2024-03-23T04:58:54;18.95;;;9.57;;
58756;SDS011;44527;47.460;19.016;2024-03-23T05:01:56;19.20;;;9.63;;
58756;SDS011;44527;47.460;19.016;2024-03-23T05:05:01;17.65;;;9.20;;
58756;SDS011;44527;47.460;19.016;2024-03-23T05:08:02;25.55;;;11.05;;
58756;SDS011;44527;47.460;19.016;2024-03-23T05:11:04;24.65;;;9.30;;
58756;SDS011;44527;47.460;19.016;2024-03-23T05:14:07;27.58;;;11.30;;
58756;SDS011;44527;47.460;19.016;2024-03-23T05:17:09;25.58;;;11.55;;
58756;SDS011;44527;47.460;19.016;2024-03-23T05:20:11;25.10;;;10.32;;
58756;SDS011;44527;47.460;19.016;2024-03-23T05:23:13;20.65;;;9.45;;
58756;SDS011;44527;47.460;19.016;2024-03-23T05:26:15;16.35;;;9.35;;
58756;SDS011;44527;47.460;19.016;2024-03-23T05:29:17;21.98;;;10.48;;
58756;SDS011;44527;47.460;19.016;2024-03-23T05:32:19;20.92;;;10.18;;
58756;SDS011;44527;47.460;19.016;2024-03-23T05:35:21;29.58;;;10.23;;
58756;SDS011;44527;47.460;19.016;2024-03-23T05:38:23;20.83;;;9.27;;
58756;SDS011;44527;47.460;19.016;2024-03-23T05:41:25;23.90;;;10.45;;
58756;SDS011;44527;47.460;19.016;2024-03-23T05:44:27;21.15;;;9.80;;
58756;SDS011;44527;47.460;19.016;2024-03-23T05:47:29;20.92;;;9.60;;
58756;SDS011;44527;47.460;19.016;2024-03-23T05:50:30;24.33;;;9.70;;
58756;SDS011;44527;47.460;19.016;2024-03-23T05:53:32;25.67;;;10.95;;
58756;SDS011;44527;47.460;19.016;2024-03-23T05:56:35;19.42;;;10.00;;
58756;SDS011;44527;47.460;19.016;2024-03-23T05:59:37;27.50;;;10.32;;
58756;SDS011;44527;47.460;19.016;2024-03-23T06:02:39;21.12;;;10.55;;
58756;SDS011;44527;47.460;19.016;2024-03-23T06:05:40;23.50;;;11.70;;
58756;SDS011;44527;47.460;19.016;2024-03-23T06:08:43;23.58;;;11.00;;
58756;SDS011;44527;47.460;19.016;2024-03-23T06:11:45;21.33;;;11.68;;
58756;SDS011;44527;47.460;19.016;2024-03-23T06:14:47;22.92;;;10.85;;
58756;SDS011;44527;47.460;19.016;2024-03-23T06:17:51;23.58;;;11.68;;
58756;SDS011;44527;47.460;19.016;2024-03-23T06:20:53;24.63;;;11.15;;
58756;SDS011;44527;47.460;19.016;2024-03-23T06:23:55;28.62;;;13.43;;
58756;SDS011;44527;47.460;19.016;2024-03-23T06:26:56;30.45;;;14.32;;
58756;SDS011;44527;47.460;19.016;2024-03-23T06:29:59;26.70;;;14.95;;
58756;SDS011;44527;47.460;19.016;2024-03-23T06:33:00;29.85;;;16.37;;
58756;SDS011;44527;47.460;19.016;2024-03-23T06:36:05;34.80;;;17.55;;
58756;SDS011;44527;47.460;19.016;2024-03-23T06:39:07;31.73;;;18.30;;
58756;SDS011;44527;47.460;19.016;2024-03-23T06:42:14;30.62;;;16.98;;
58756;SDS011;44527;47.460;19.016;2024-03-23T06:45:16;37.22;;;17.30;;
58756;SDS011;44527;47.460;19.016;2024-03-23T06:48:21;31.77;;;17.40;;
58756;SDS011;44527;47.460;19.016;2024-03-23T06:51:23;36.70;;;17.45;;
58756;SDS011;44527;47.460;19.016;2024-03-23T06:54:26;38.05;;;19.33;;
58756;SDS011;44527;47.460;19.016;2024-03-23T06:57:27;37.50;;;18.10;;
58756;SDS011;44527;47.460;19.016;2024-03-23T07:00:30;33.90;;;18.67;;
58756;SDS011;44527;47.460;19.016;2024-03-23T07:03:32;29.70;;;17.08;;
58756;SDS011;44527;47.460;19.016;2024-03-23T07:06:34;31.42;;;18.25;;
58756;SDS011;44527;47.460;19.016;2024-03-23T07:09:35;33.67;;;18.58;;
58756;SDS011;44527;47.460;19.016;2024-03-23T07:12:39;36.72;;;17.60;;
58756;SDS011;44527;47.460;19.016;2024-03-23T07:15:40;30.17;;;17.70;;
58756;SDS011;44527;47.460;19.016;2024-03-23T07:18:42;35.20;;;18.80;;
58756;SDS011;44527;47.460;19.016;2024-03-23T07:21:44;31.80;;;17.35;;
58756;SDS011;44527;47.460;19.016;2024-03-23T07:24:46;31.37;;;17.27;;
58756;SDS011;44527;47.460;19.016;2024-03-23T07:27:48;33.28;;;18.23;;
58756;SDS011;44527;47.460;19.016;2024-03-23T07:31:04;30.40;;;17.62;;
58756;SDS011;44527;47.460;19.016;2024-03-23T07:37:12;34.42;;;17.65;;
58756;SDS011;44527;47.460;19.016;2024-03-23T07:40:13;29.20;;;16.30;;
58756;SDS011;44527;47.460;19.016;2024-03-23T07:43:15;27.30;;;16.58;;
58756;SDS011;44527;47.460;19.016;2024-03-23T07:46:17;26.02;;;16.23;;
58756;SDS011;44527;47.460;19.016;2024-03-23T07:49:20;26.95;;;14.15;;
58756;SDS011;44527;47.460;19.016;2024-03-23T07:52:22;24.70;;;15.15;;
58756;SDS011;44527;47.460;19.016;2024-03-23T07:55:24;26.05;;;14.50;;
58756;SDS011;44527;47.460;19.016;2024-03-23T07:58:26;21.33;;;13.38;;
58756;SDS011;44527;47.460;19.016;2024-03-23T08:01:28;25.52;;;13.02;;
58756;SDS011;44527;47.460;19.016;2024-03-23T08:04:31;21.10;;;13.18;;
58756;SDS011;44527;47.460;19.016;2024-03-23T08:07:32;20.08;;;11.88;;
58756;SDS011;44527;47.460;19.016;2024-03-23T08:10:34;19.55;;;12.98;;
58756;SDS011;44527;47.460;19.016;2024-03-23T08:13:36;20.48;;;12.30;;
58756;SDS011;44527;47.460;19.016;2024-03-23T08:16:40;22.50;;;12.75;;
58756;SDS011;44527;47.460;19.016;2024-03-23T08:19:42;23.73;;;14.07;;
58756;SDS011;44527;47.460;19.016;2024-03-23T08:22:45;20.27;;;12.77;;
58756;SDS011;44527;47.460;19.016;2024-03-23T08:25:46;24.40;;;13.43;;
58756;SDS011;44527;47.460;19.016;2024-03-23T08:28:50;21.95;;;13.93;;
58756;SDS011;44527;47.460;19.016;2024-03-23T08:31:51;25.20;;;15.00;;
58756;SDS011;44527;47.460;19.016;2024-03-23T08:34:53;25.75;;;14.10;;
58756;SDS011;44527;47.460;19.016;2024-03-23T08:37:55;23.42;;;14.60;;
58756;SDS011;44527;47.460;19.016;2024-03-23T08:44:04;25.73;;;12.93;;
58756;SDS011;44527;47.460;19.016;2024-03-23T08:47:06;21.15;;;11.98;;
58756;SDS011;44527;47.460;19.016;2024-03-23T08:50:07;22.55;;;13.27;;
58756;SDS011;44527;47.460;19.016;2024-03-23T08:53:10;20.50;;;12.95;;
58756;SDS011;44527;47.460;19.016;2024-03-23T08:56:12;28.55;;;13.43;;
58756;SDS011;44527;47.460;19.016;2024-03-23T08:59:14;24.92;;;12.90;;
58756;SDS011;44527;47.460;19.016;2024-03-23T09:02:16;29.83;;;12.27;;
58756;SDS011;44527;47.460;19.016;2024-03-23T09:05:18;25.15;;;12.52;;
58756;SDS011;44527;47.460;19.016;2024-03-23T09:08:20;23.05;;;12.25;;
58756;SDS011;44527;47.460;19.016;2024-03-23T09:11:23;21.45;;;11.50;;
58756;SDS011;44527;47.460;19.016;2024-03-23T09:14:27;21.35;;;11.05;;
58756;SDS011;44527;47.460;19.016;2024-03-23T09:17:31;20.80;;;10.90;;
58756;SDS011;44527;47.460;19.016;2024-03-23T09:20:33;18.35;;;10.23;;
58756;SDS011;44527;47.460;19.016;2024-03-23T09:23:35;17.77;;;8.73;;
58756;SDS011;44527;47.460;19.016;2024-03-23T09:26:37;15.95;;;8.65;;
58756;SDS011;44527;47.460;19.016;2024-03-23T09:29:39;13.20;;;8.18;;
58756;SDS011;44527;47.460;19.016;2024-03-23T09:32:42;16.73;;;9.35;;
58756;SDS011;44527;47.460;19.016;2024-03-23T09:35:45;13.80;;;7.87;;
58756;SDS011;44527;47.460;19.016;2024-03-23T09:38:48;14.80;;;8.10;;
58756;SDS011;44527;47.460;19.016;2024-03-23T09:41:50;11.73;;;7.53;;
58756;SDS011;44527;47.460;19.016;2024-03-23T09:45:28;10.77;;;6.30;;
58756;SDS011;44527;47.460;19.016;2024-03-23T09:48:33;12.15;;;6.75;;
58756;SDS011;44527;47.460;19.016;2024-03-23T09:51:40;10.38;;;5.28;;
58756;SDS011;44527;47.460;19.016;2024-03-23T09:54:44;12.52;;;6.30;;
58756;SDS011;44527;47.460;19.016;2024-03-23T09:57:53;9.38;;;6.05;;
58756;SDS011;44527;47.460;19.016;2024-03-23T10:01:04;12.32;;;6.25;;
58756;SDS011;44527;47.460;19.016;2024-03-23T10:04:35;9.48;;;5.97;;
58756;SDS011;44527;47.460;19.016;2024-03-23T10:07:44;9.68;;;5.55;;
58756;SDS011;44527;47.460;19.016;2024-03-23T10:11:14;14.48;;;6.68;;
58756;SDS011;44527;47.460;19.016;2024-03-23T10:14:31;15.95;;;6.62;;
58756;SDS011;44527;47.460;19.016;2024-03-23T10:17:34;12.20;;;6.25;;
58756;SDS011;44527;47.460;19.016;2024-03-23T10:20:37;11.30;;;5.82;;
58756;SDS011;44527;47.460;19.016;2024-03-23T10:23:40;10.75;;;5.68;;
58756;SDS011;44527;47.460;19.016;2024-03-23T10:26:55;10.00;;;4.80;;
58756;SDS011;44527;47.460;19.016;2024-03-23T10:30:19;9.40;;;4.75;;
58756;SDS011;44527;47.460;19.016;2024-03-23T10:33:32;17.98;;;4.80;;
58756;SDS011;44527;47.460;19.016;2024-03-23T10:36:43;12.90;;;5.85;;
58756;SDS011;44527;47.460;19.016;2024-03-23T10:39:46;10.90;;;5.18;;
58756;SDS011;44527;47.460;19.016;2024-03-23T10:42:55;9.05;;;4.70;;
58756;SDS011;44527;47.460;19.016;2024-03-23T10:46:03;7.45;;;4.60;;
58756;SDS011;44527;47.460;19.016;2024-03-23T10:49:07;8.95;;;4.60;;
58756;SDS011;44527;47.460;19.016;2024-03-23T10:52:12;7.47;;;4.80;;
58756;SDS011;44527;47.460;19.016;2024-03-23T10:55:19;10.10;;;4.68;;
58756;SDS011;44527;47.460;19.016;2024-03-23T10:58:36;10.40;;;4.97;;
58756;SDS011;44527;47.460;19.016;2024-03-23T11:01:54;11.07;;;5.05;;
58756;SDS011;44527;47.460;19.016;2024-03-23T11:05:28;7.60;;;3.80;;
58756;SDS011;44527;47.460;19.016;2024-03-23T11:08:38;11.10;;;3.90;;
58756;SDS011;44527;47.460;19.016;2024-03-23T11:11:51;12.65;;;4.75;;
58756;SDS011;44527;47.460;19.016;2024-03-23T11:18:06;8.93;;;3.25;;
58756;SDS011;44527;47.460;19.016;2024-03-23T11:21:51;8.55;;;3.58;;
58756;SDS011;44527;47.460;19.016;2024-03-23T11:24:55;6.70;;;3.20;;
58756;SDS011;44527;47.460;19.016;2024-03-23T11:28:20;7.03;;;3.42;;
58756;SDS011;44527;47.460;19.016;2024-03-23T11:31:33;13.90;;;4.43;;
58756;SDS011;44527;47.460;19.016;2024-03-23T11:34:40;7.05;;;3.65;;
58756;SDS011;44527;47.460;19.016;2024-03-23T11:37:43;6.10;;;3.30;;
58756;SDS011;44527;47.460;19.016;2024-03-23T11:40:48;6.43;;;3.20;;
58756;SDS011;44527;47.460;19.016;2024-03-23T11:43:58;11.43;;;3.65;;
58756;SDS011;44527;47.460;19.016;2024-03-23T11:47:16;8.80;;;3.20;;
58756;SDS011;44527;47.460;19.016;2024-03-23T11:50:19;8.55;;;3.78;;
58756;SDS011;44527;47.460;19.016;2024-03-23T11:53:22;6.85;;;3.40;;
58756;SDS011;44527;47.460;19.016;2024-03-23T11:56:26;5.37;;;2.90;;
58756;SDS011;44527;47.460;19.016;2024-03-23T11:59:35;9.07;;;3.40;;
58756;SDS011;44527;47.460;19.016;2024-03-23T12:02:42;8.25;;;3.12;;
58756;SDS011;44527;47.460;19.016;2024-03-23T12:05:47;5.80;;;2.95;;
58756;SDS011;44527;47.460;19.016;2024-03-23T12:08:54;7.53;;;3.00;;
58756;SDS011;44527;47.460;19.016;2024-03-23T12:12:13;8.75;;;2.95;;
58756;SDS011;44527;47.460;19.016;2024-03-23T12:15:19;10.52;;;2.67;;
58756;SDS011;44527;47.460;19.016;2024-03-23T12:18:23;5.40;;;2.60;;
58756;SDS011;44527;47.460;19.016;2024-03-23T12:21:26;10.38;;;3.25;;
58756;SDS011;44527;47.460;19.016;2024-03-23T12:24:30;4.20;;;2.05;;
58756;SDS011;44527;47.460;19.016;2024-03-23T12:27:36;7.85;;;2.83;;
58756;SDS011;44527;47.460;19.016;2024-03-23T12:30:39;3.85;;;2.42;;
58756;SDS011;44527;47.460;19.016;2024-03-23T12:33:42;5.37;;;2.47;;
58756;SDS011;44527;47.460;19.016;2024-03-23T12:36:46;8.00;;;2.40;;
58756;SDS011;44527;47.460;19.016;2024-03-23T12:39:48;3.33;;;2.08;;
58756;SDS011;44527;47.460;19.016;2024-03-23T12:42:51;6.03;;;2.58;;
58756;SDS011;44527;47.460;19.016;2024-03-23T12:45:55;4.75;;;2.40;;
58756;SDS011;44527;47.460;19.016;2024-03-23T12:48:57;4.25;;;2.12;;
58756;SDS011;44527;47.460;19.016;2024-03-23T12:52:01;5.07;;;2.20;;
58756;SDS011;44527;47.460;19.016;2024-03-23T12:55:08;4.50;;;2.03;;
58756;SDS011;44527;47.460;19.016;2024-03-23T12:58:12;3.20;;;1.87;;
58756;SDS011;44527;47.460;19.016;2024-03-23T13:01:26;4.50;;;1.77;;
58756;SDS011;44527;47.460;19.016;2024-03-23T13:04:28;3.55;;;1.85;;
58756;SDS011;44527;47.460;19.016;2024-03-23T13:07:41;8.98;;;2.22;;
58756;SDS011;44527;47.460;19.016;2024-03-23T13:10:43;10.00;;;2.10;;
58756;SDS011;44527;47.460;19.016;2024-03-23T13:13:47;4.22;;;2.25;;
58756;SDS011;44527;47.460;19.016;2024-03-23T13:16:54;7.43;;;2.35;;
58756;SDS011;44527;47.460;19.016;2024-03-23T13:19:58;9.00;;;2.10;;
58756;SDS011;44527;47.460;19.016;2024-03-23T13:23:00;3.12;;;1.80;;
58756;SDS011;44527;47.460;19.016;2024-03-23T13:26:06;5.40;;;2.10;;
58756;SDS011;44527;47.460;19.016;2024-03-23T13:29:09;4.57;;;2.53;;
58756;SDS011;44527;47.460;19.016;2024-03-23T13:32:15;4.65;;;2.33;;
58756;SDS011;44527;47.460;19.016;2024-03-23T13:35:22;4.87;;;2.42;;
58756;SDS011;44527;47.460;19.016;2024-03-23T13:38:25;6.25;;;2.62;;
58756;SDS011;44527;47.460;19.016;2024-03-23T13:41:37;4.90;;;2.50;;
58756;SDS011;44527;47.460;19.016;2024-03-23T13:45:01;4.72;;;2.28;;
58756;SDS011;44527;47.460;19.016;2024-03-23T13:48:11;5.47;;;2.40;;
58756;SDS011;44527;47.460;19.016;2024-03-23T13:51:25;5.32;;;2.25;;
58756;SDS011;44527;47.460;19.016;2024-03-23T13:54:34;5.57;;;2.10;;
58756;SDS011;44527;47.460;19.016;2024-03-23T13:57:39;4.68;;;2.30;;
58756;SDS011;44527;47.460;19.016;2024-03-23T14:00:53;5.28;;;2.22;;
58756;SDS011;44527;47.460;19.016;2024-03-23T14:03:57;3.75;;;2.00;;
58756;SDS011;44527;47.460;19.016;2024-03-23T14:06:59;3.75;;;2.03;;
58756;SDS011;44527;47.460;19.016;2024-03-23T14:10:12;5.80;;;1.95;;
58756;SDS011;44527;47.460;19.016;2024-03-23T14:13:31;4.32;;;2.00;;
58756;SDS011;44527;47.460;19.016;2024-03-23T14:16:36;11.02;;;3.33;;
58756;SDS011;44527;47.460;19.016;2024-03-23T14:19:41;3.55;;;2.30;;
58756;SDS011;44527;47.460;19.016;2024-03-23T14:22:45;3.30;;;1.85;;
58756;SDS011;44527;47.460;19.016;2024-03-23T14:25:47;3.40;;;2.05;;
58756;SDS011;44527;47.460;19.016;2024-03-23T14:28:55;2.20;;;1.52;;
58756;SDS011;44527;47.460;19.016;2024-03-23T14:31:57;4.60;;;2.35;;
58756;SDS011;44527;47.460;19.016;2024-03-23T14:35:16;5.53;;;2.22;;
58756;SDS011;44527;47.460;19.016;2024-03-23T14:38:21;6.12;;;2.12;;
58756;SDS011;44527;47.460;19.016;2024-03-23T14:41:23;4.07;;;2.22;;
58756;SDS011;44527;47.460;19.016;2024-03-23T14:44:43;4.93;;;2.00;;
58756;SDS011;44527;47.460;19.016;2024-03-23T14:47:55;5.87;;;2.50;;
58756;SDS011;44527;47.460;19.016;2024-03-23T14:51:01;3.83;;;2.42;;
58756;SDS011;44527;47.460;19.016;2024-03-23T14:54:07;4.40;;;1.87;;
58756;SDS011;44527;47.460;19.016;2024-03-23T14:57:11;6.15;;;2.70;;
58756;SDS011;44527;47.460;19.016;2024-03-23T15:00:18;5.57;;;2.85;;
58756;SDS011;44527;47.460;19.016;2024-03-23T15:03:21;4.60;;;2.75;;
58756;SDS011;44527;47.460;19.016;2024-03-23T15:06:25;6.57;;;2.60;;
58756;SDS011;44527;47.460;19.016;2024-03-23T15:09:28;7.22;;;2.80;;
58756;SDS011;44527;47.460;19.016;2024-03-23T15:12:34;8.48;;;2.87;;
58756;SDS011;44527;47.460;19.016;2024-03-23T15:15:38;5.12;;;3.00;;
58756;SDS011;44527;47.460;19.016;2024-03-23T15:18:46;9.77;;;3.78;;
58756;SDS011;44527;47.460;19.016;2024-03-23T15:21:49;5.22;;;3.20;;
58756;SDS011;44527;47.460;19.016;2024-03-23T15:24:53;4.37;;;2.83;;
58756;SDS011;44527;47.460;19.016;2024-03-23T15:27:58;5.07;;;2.70;;
58756;SDS011;44527;47.460;19.016;2024-03-23T15:31:01;7.68;;;3.75;;
58756;SDS011;44527;47.460;19.016;2024-03-23T15:34:04;4.47;;;3.12;;
58756;SDS011;44527;47.460;19.016;2024-03-23T15:37:13;4.47;;;2.72;;
58756;SDS011;44527;47.460;19.016;2024-03-23T15:40:17;18.52;;;4.12;;
58756;SDS011;44527;47.460;19.016;2024-03-23T15:43:22;11.18;;;3.95;;
58756;SDS011;44527;47.460;19.016;2024-03-23T15:46:25;13.57;;;4.00;;
58756;SDS011;44527;47.460;19.016;2024-03-23T15:49:29;7.37;;;3.62;;
58756;SDS011;44527;47.460;19.016;2024-03-23T15:52:33;8.20;;;3.75;;
58756;SDS011;44527;47.460;19.016;2024-03-23T15:55:41;9.38;;;3.67;;
58756;SDS011;44527;47.460;19.016;2024-03-23T15:58:44;6.05;;;3.17;;
58756;SDS011;44527;47.460;19.016;2024-03-23T16:01:48;5.50;;;2.97;;
58756;SDS011;44527;47.460;19.016;2024-03-23T16:04:56;10.32;;;4.05;;
58756;SDS011;44527;47.460;19.016;2024-03-23T16:08:04;8.90;;;3.03;;
58756;SDS011;44527;47.460;19.016;2024-03-23T16:11:11;12.00;;;3.45;;
58756;SDS011;44527;47.460;19.016;2024-03-23T16:14:13;6.70;;;3.70;;
58756;SDS011;44527;47.460;19.016;2024-03-23T16:17:18;9.20;;;3.95;;
58756;SDS011;44527;47.460;19.016;2024-03-23T16:20:21;6.47;;;3.42;;
58756;SDS011;44527;47.460;19.016;2024-03-23T16:23:23;8.27;;;3.20;;
58756;SDS011;44527;47.460;19.016;2024-03-23T16:26:30;6.85;;;3.37;;
58756;SDS011;44527;47.460;19.016;2024-03-23T16:29:33;7.82;;;3.65;;
58756;SDS011;44527;47.460;19.016;2024-03-23T16:32:36;6.03;;;3.53;;
58756;SDS011;44527;47.460;19.016;2024-03-23T16:35:44;7.47;;;3.83;;
58756;SDS011;44527;47.460;19.016;2024-03-23T16:38:48;5.72;;;3.62;;
58756;SDS011;44527;47.460;19.016;2024-03-23T16:41:56;9.85;;;3.92;;
58756;SDS011;44527;47.460;19.016;2024-03-23T16:45:02;7.03;;;3.62;;
58756;SDS011;44527;47.460;19.016;2024-03-23T16:48:05;11.10;;;4.10;;
58756;SDS011;44527;47.460;19.016;2024-03-23T16:51:13;11.98;;;4.60;;
58756;SDS011;44527;47.460;19.016;2024-03-23T16:54:21;13.23;;;5.07;;
58756;SDS011;44527;47.460;19.016;2024-03-23T16:57:23;13.95;;;4.97;;
58756;SDS011;44527;47.460;19.016;2024-03-23T17:00:34;9.07;;;4.82;;
58756;SDS011;44527;47.460;19.016;2024-03-23T17:03:40;10.98;;;4.43;;
58756;SDS011;44527;47.460;19.016;2024-03-23T17:06:49;12.90;;;5.30;;
58756;SDS011;44527;47.460;19.016;2024-03-23T17:09:56;31.25;;;3.33;;
58756;SDS011;44527;47.460;19.016;2024-03-23T17:13:21;10.98;;;1.30;;
58756;SDS011;44527;47.460;19.016;2024-03-23T17:16:45;4.28;;;1.00;;
58756;SDS011;44527;47.460;19.016;2024-03-23T17:19:58;5.53;;;1.15;;
58756;SDS011;44527;47.460;19.016;2024-03-23T17:23:10;10.20;;;1.00;;
58756;SDS011;44527;47.460;19.016;2024-03-23T17:26:14;4.75;;;0.62;;
58756;SDS011;44527;47.460;19.016;2024-03-23T17:29:17;8.57;;;0.77;;
58756;SDS011;44527;47.460;19.016;2024-03-23T17:32:19;16.10;;;1.25;;
58756;SDS011;44527;47.460;19.016;2024-03-23T17:35:23;2.58;;;0.60;;
58756;SDS011;44527;47.460;19.016;2024-03-23T17:38:30;1.15;;;0.43;;
58756;SDS011;44527;47.460;19.016;2024-03-23T17:41:34;4.40;;;0.70;;
58756;SDS011;44527;47.460;19.016;2024-03-23T17:44:36;5.07;;;0.80;;
58756;SDS011;44527;47.460;19.016;2024-03-23T17:47:39;1.10;;;0.50;;
58756;SDS011;44527;47.460;19.016;2024-03-23T17:50:43;3.85;;;0.50;;
58756;SDS011;44527;47.460;19.016;2024-03-23T17:53:53;1.45;;;0.75;;
58756;SDS011;44527;47.460;19.016;2024-03-23T17:56:58;3.17;;;0.70;;
58756;SDS011;44527;47.460;19.016;2024-03-23T18:00:02;1.33;;;0.60;;
58756;SDS011;44527;47.460;19.016;2024-03-23T18:03:12;2.03;;;0.75;;
58756;SDS011;44527;47.460;19.016;2024-03-23T18:06:14;1.17;;;0.50;;
58756;SDS011;44527;47.460;19.016;2024-03-23T18:09:20;1.33;;;0.60;;
58756;SDS011;44527;47.460;19.016;2024-03-23T18:12:38;4.62;;;1.05;;
58756;SDS011;44527;47.460;19.016;2024-03-23T18:15:42;0.70;;;0.50;;
58756;SDS011;44527;47.460;19.016;2024-03-23T18:18:48;0.68;;;0.40;;
58756;SDS011;44527;47.460;19.016;2024-03-23T18:21:53;1.87;;;0.55;;
58756;SDS011;44527;47.460;19.016;2024-03-23T18:24:56;2.45;;;0.40;;
58756;SDS011;44527;47.460;19.016;2024-03-23T18:27:58;1.70;;;0.50;;
58756;SDS011;44527;47.460;19.016;2024-03-23T18:31:01;1.30;;;0.50;;
58756;SDS011;44527;47.460;19.016;2024-03-23T18:34:03;0.50;;;0.30;;
58756;SDS011;44527;47.460;19.016;2024-03-23T18:37:13;0.70;;;0.47;;
58756;SDS011;44527;47.460;19.016;2024-03-23T18:40:16;4.32;;;0.60;;
58756;SDS011;44527;47.460;19.016;2024-03-23T18:43:23;14.40;;;0.55;;
58756;SDS011;44527;47.460;19.016;2024-03-23T18:46:28;1.92;;;0.50;;
58756;SDS011;44527;47.460;19.016;2024-03-23T18:49:34;1.30;;;0.50;;
58756;SDS011;44527;47.460;19.016;2024-03-23T18:52:36;2.95;;;0.50;;
58756;SDS011;44527;47.460;19.016;2024-03-23T18:55:40;1.40;;;0.55;;
58756;SDS011;44527;47.460;19.016;2024-03-23T18:58:45;5.32;;;0.68;;
58756;SDS011;44527;47.460;19.016;2024-03-23T19:01:47;4.20;;;0.60;;
58756;SDS011;44527;47.460;19.016;2024-03-23T19:04:49;1.55;;;0.50;;
58756;SDS011;44527;47.460;19.016;2024-03-23T19:07:51;1.65;;;0.60;;